arxmliv
arxmliv build tool
 
KWARC group
LaTeXML
About
   
 

Detailed info

Back to Homepage

List of missing_macros

No. Date Filename num_warningnum_errornum_xmargok_xmargnum_xmathok_xmathMissing macros
161201 2013-02-26 13:26:43 /0008/hep-th.0008175 29710000[\abstracts].
161202 2013-02-26 13:22:27 /0008/hep-th.0008169 960000[\1, \addresses, \authors, \2, \nextaddress, \adref].
161203 2013-02-26 13:22:15 /0008/hep-th.0008155 0100000[\bibbf, \nonumsection, \copyrightheading, \bibit, \fpage, \fcaption, \runninghead, \abstracts, \textlineskip]; 1 missing file[mpla1.sty].
161204 2013-02-26 13:21:57 /0008/hep-th.0008147 21710000[\theappendix].
161205 2013-02-26 13:21:51 /0008/hep-th.0008143 110340000[\affil, \Line, \email, {acknowledgment}, {references}, \contents, {article}, \authorrunninghead, \keywords, \titlerunninghead].
161206 2013-02-26 13:19:25 /0008/hep-th.0008096 65290000[\includegraphics, \Eins, \epsfig, \institute].
161207 2013-02-26 13:17:54 /0008/hep-th.0008098 12120000[\overleftrightarrow, \NEG].
161208 2013-02-26 13:17:01 /0008/hep-th.0008072 30680000[\xoverv, {xy}, \cir, \crv, \frm, \xunderv, \vcrossneg, Align, \dir, \vcross]; 1 missing file[xy.sty].
161209 2013-02-26 13:16:48 /0008/hep-th.0008071 3510000[\bezier].
161210 2013-02-26 13:15:44 /0008/hep-th.0008074 9810000[{centering}].
161211 2013-02-26 13:15:33 /0008/hep-th.0008073 7910000[\epsffileline].
161212 2013-02-26 13:14:51 /0008/hep-th.0008066 5510000[\psfrag].
161213 2013-02-26 13:13:52 /0008/hep-th.0008044 11940000[\QATOPD, \QTATOP, \QATOP, \tfrac].
161214 2013-02-26 13:11:31 /0008/hep-th.0008038 1610000[\EuScript].
161215 2013-02-26 13:11:12 /0008/hep-th.0008025 12010000[\@@underline].
161216 2013-02-26 13:10:25 /0008/hep-th.0008010 6040000[\subtitle, \institute, {opening}, \mathfrak].
161217 2013-02-26 13:08:46 /0008/hep-th.0008005 5020000[\theappendix].
161218 2013-02-26 13:07:47 /0008/hep-th.0008008 1150000[Align, \txt, \xymatrix, \ar]; 1 missing file[xy.sty].
161219 2013-02-26 13:05:11 /0008/hep-ph.0008308 227210000[\fmffreeze, {fmffile}, \fmf, \fmflabel, \fmfdot, {fmfgraph*}, \fmfleft, \psfrag, \fmfright].
161220 2013-02-26 13:03:27 /0008/hep-ph.0008324 080000[\includegraphics, \Text, \Line, \SetWidth, \Photon, \SetScale, \abstracts]; 1 missing file[ws.sty].
161221 2013-02-26 13:03:00 /0008/hep-ph.0008315 91160000[\psfrag].
161222 2013-02-26 13:02:14 /0008/hep-ph.0008312 130000[\abstracts, \psfig]; 1 missing file[ws.sty].
161223 2013-02-26 13:02:08 /0008/hep-ph.0008313 030000[\includegraphics, \epsfxsize]; 1 missing file[ws.sty].
161224 2013-02-26 13:01:47 /0008/hep-ph.0008287 25410000[\a].
161225 2013-02-26 13:01:12 /0008/hep-ph.0008298 1940000[\rotate, \figurebox, \epsfxsize]; 1 missing file[ws.sty].
161226 2013-02-26 13:00:32 /0008/hep-ph.0008307 3110000[\theappendix].
161227 2013-02-26 13:00:12 /0008/hep-ph.0008239 538340000[\dq].
161228 2013-02-26 12:59:47 /0008/hep-ph.0008268 34460000[\Text, \ArrowArc, \Vertex, \ArrowLine, \SetWidth, \ArrowArcn].
161229 2013-02-26 12:58:47 /0008/hep-ph.0008296 1530000[\psbox]; 1 missing file[epsbox.sty].
161230 2013-02-26 12:58:45 /0008/hep-ph.0008279 9130000[\epsfbox, \epsfxsize]; 1 missing file[epsfig].
161231 2013-02-26 12:57:53 /0008/hep-ph.0008284 020000[\figurebox, \epsfxsize].
161232 2013-02-26 12:57:45 /0008/hep-ph.0008269 9010000[\psfrag].
161233 2013-02-26 12:57:39 /0008/hep-ph.0008276 56120000[\ArrowArc, \Line, \Photon, \ArrowArcn, \DashArrowLine, \ArrowLine, \Text, \Vertex, \DashCArc, \SetWidth, \SetScale, \DashLine].
161234 2013-02-26 12:56:12 /0008/hep-ph.0008238 4750000[\Curve, \Text, \rText, \DashCurve, \LinAxis].
161235 2013-02-26 12:55:35 /0008/hep-ph.0008249 050000[\epsfig, \epsffile, \epsfxsize].
161236 2013-02-26 12:55:30 /0008/hep-ph.0008254 010000[\rotate].
161237 2013-02-26 12:55:14 /0008/hep-ph.0008256 1130000[\epsfbox, \epsfxsize]; 1 missing file[ws.sty].
161238 2013-02-26 12:55:04 /0008/hep-ph.0008221 21210000[\pri, \Id, \epsfig]; 1 missing file[.cls].
161239 2013-02-26 12:52:17 /0008/hep-ph.0008227 810000[\toctitle].
161240 2013-02-26 12:51:51 /0008/hep-ph.0008211 010000[\epsfig].
161241 2013-02-26 12:50:04 /0008/hep-ph.0008197 470000[\ArrowLine, \Text, \SetWidth, \SetScale, \SetOffset, \DashLine, \Gluon].
161242 2013-02-26 12:49:55 /0008/hep-ph.0008180 220000[\psfrag].
161243 2013-02-26 12:49:21 /0008/hep-ph.0008172 3530000[\ArrowLine, \Text, \Photon].
161244 2013-02-26 12:48:37 /0008/hep-ph.0008158 250000[\Vertex, \Text, \ArrowLine, \Photon, \DashLine].
161245 2013-02-26 12:48:28 /0008/hep-ph.0008165 2490000[\ArrowArc, \Photon, \ArrowArcn, \DashArrowLine, \ArrowLine, \Text, \DashArrowArcn, \PhotonArc, \Gluon].
161246 2013-02-26 12:48:15 /0008/hep-ph.0008127 248460000[\fmfrightn, {fmfshrink}, \fmf, \Photon, \fmflabel, \fmfdot, {fmfgraph*}, \Vertex, \Text, \fmfleftn, \fmfstraight, \DashLine, \fmffreeze, {fmffile}, \Line, \GlueArc, \ArrowLine, \SetWidth, \headrulewidth, \CArc, \@cite, \Gluon].
161247 2013-02-26 12:48:00 /0008/hep-ph.0008151 1110000[\prettyref].
161248 2013-02-26 12:47:32 /0008/hep-ph.0008153 020000[\psfig]; 1 missing file[psfig.tex].
161249 2013-02-26 12:46:46 /0008/hep-ph.0008140 060000[\GBox, \Vertex, \Text, \Line, \DashCArc, \Photon].
161250 2013-02-26 12:46:32 /0008/hep-ph.0008145 110000[\toctitle].
161251 2013-02-26 12:45:37 /0008/hep-ph.0008118 23100000[\preface, \submissiondate, \supervisor, \lfoot, \institution, \department, \references, \faculty, \degree]; 1 missing file[manthesis.sty].
161252 2013-02-26 12:44:54 /0008/hep-ph.0008135 110000[\acknowledgements].
161253 2013-02-26 12:44:39 /0008/hep-ph.0008137 6290000[\epsfbox, \epsfxsize]; 1 missing file[dubna98.sty].
161254 2013-02-26 12:43:59 /0008/hep-ph.0008123 110000[\psfrag]; 1 missing file[menu99.cls].
161255 2013-02-26 12:43:58 /0008/hep-ph.0008121 320000[\abstracts]; 1 missing file[ws.sty].
161256 2013-02-26 12:43:40 /0008/hep-ph.0008033 147410000[\Line, \ArrowArc, \Photon, \ArrowLine, \Vertex, \Text, \GCirc, \LongArrow, \CArc, \PhotonArc, \DashLine].
161257 2013-02-26 12:43:01 /0008/hep-ph.0008112 250000[\preprint, \address, \psfig]; 2 missing files[psfig, appbwb.sty].
161258 2013-02-26 12:42:27 /0008/hep-ph.0008098 11130000[\epsfbox, \institute, \runningtitle, {opening}, \epsfysize].
161259 2013-02-26 12:41:42 /0008/hep-ph.0008070 177550000[\Line, \@mkboth, \tableline, \epsffile, \address, \Vertex, \gtrsim, \epsfbox, \@starttoc, \epsfxsize, \epsfysize].
161260 2013-02-26 12:40:37 /0008/hep-ph.0008092 1110000[\epsfig].
161261 2013-02-26 12:40:23 /0008/hep-ph.0008068 3760000[\Vertex, \ArrowLine, \Text, \Line, \BBoxc, \GOval].
161262 2013-02-26 12:39:05 /0008/hep-ph.0008086 030000[\dfttnum]; 2 missing files[latexuseful2e.sty, dfttrob.sty].
161263 2013-02-26 12:38:29 /0008/hep-ph.0008077 670000[\fmfpen, {fmffile}, {fmfgraph*}, \fmf, \fmfforce, \fmfleft, \fmfright].
161264 2013-02-26 12:38:15 /0008/hep-ph.0008060 3220000[\abstracts]; 1 missing file[ws.sty].
161265 2013-02-26 12:38:14 /0008/hep-ph.0008061 910000[\firstfigfalse].
161266 2013-02-26 12:37:34 /0008/hep-ph.0008048 110000[\epsfig].
161267 2013-02-26 12:37:05 /0008/hep-ph.0008038 250000[\BoxedEPSF, \affiliation, \SetRokickiEPSFSpecial, \HideDisplacementBoxes]; 1 missing file[BoxedEPS].
161268 2013-02-26 12:36:49 /0008/hep-ph.0008011 5110000[\headwidth].
161269 2013-02-26 12:36:20 /0008/hep-ph.0008046 10140000[\Text, \ArrowLine, \Line, \DashArrowLine].
161270 2013-02-26 12:33:26 /0008/hep-ph.0008015 1210000[\epsfig].
161271 2013-02-26 12:31:49 /0008/hep-lat.0008019 030000[\psfig]; 1 missing file[psfig].
161272 2013-02-26 12:31:28 /0008/hep-lat.0008007 88160000[{lemma}, {theorem}, {remunerate}, {corollary}, {AMS}, \thetheorem, {proof}, {proposition}].
161273 2013-02-26 12:29:37 /0008/hep-ex.0008077 210000[\epsfig].
161274 2013-02-26 12:29:36 /0008/hep-ex.0008073 030000[\extrasenglish, \dateenglish, \captionsenglish].
161275 2013-02-26 12:29:26 /0008/hep-ex.0008078 010000[\epsfig].
161276 2013-02-26 12:29:24 /0008/hep-ex.0008052 4910000[\smaller].
161277 2013-02-26 12:29:14 /0008/hep-ex.0008062 5190000[\epsfig].
161278 2013-02-26 12:29:02 /0008/hep-ex.0008053 2210000[\smaller].
161279 2013-02-26 12:28:46 /0008/hep-ex.0008054 1410000[\smaller].
161280 2013-02-26 12:28:44 /0008/hep-ex.0008055 1210000[\smaller].
161281 2013-02-26 12:28:37 /0008/hep-ex.0008070 1250000[\figurebox, \epsfxsize].
161282 2013-02-26 12:28:28 /0008/hep-ex.0008057 8010000[\smaller].
161283 2013-02-26 12:28:27 /0008/hep-ex.0008060 810000[\smaller].
161284 2013-02-26 12:28:21 /0008/hep-ex.0008058 1320000[\smaller, {sideways}].
161285 2013-02-26 12:28:20 /0008/hep-ex.0008048 7310000[\smaller].
161286 2013-02-26 12:28:17 /0008/hep-ex.0008059 2110000[\smaller].
161287 2013-02-26 12:27:58 /0008/hep-ex.0008043 6100000[\Text, \ArrowLine, \SetWidth, \Photon, \GOval].
161288 2013-02-26 12:27:50 /0008/hep-ex.0008061 520000[\psfull]; 1 missing file[psfig].
161289 2013-02-26 12:27:42 /0008/hep-ex.0008050 1410000[\smaller].
161290 2013-02-26 12:27:39 /0008/hep-ex.0008049 710000[\smaller].
161291 2013-02-26 12:27:38 /0008/hep-ex.0008026 12520000[\preprint, {mcbibliography}, \e, \journalname, \MW, \CPC, \ZfP, \PRL, \PL, \submitted, \PR, \etal, \NP]; 1 missing file[l3_title.sty].
161292 2013-02-26 12:27:37 /0008/hep-ex.0008047 610000[\epsfig].
161293 2013-02-26 12:27:25 /0008/hep-ex.0008051 1510000[\smaller].
161294 2013-02-26 12:27:19 /0008/hep-ex.0008025 470000[\preprint, {Authlist}, \citet, \submitted, \GeV, \journalname]; 1 missing file[l3_title.sty].
161295 2013-02-26 12:26:58 /0008/hep-ex.0008028 22260000[\includegraphics, \abstracts]; 1 missing file[ws.sty].
161296 2013-02-26 12:26:40 /0008/hep-ex.0008041 47310000[\figurebox, \epsfxsize]; 1 missing file[ws.sty].
161297 2013-02-26 12:26:37 /0008/hep-ex.0008023 4310000[\preprint, \qqbar, {Authlist}, \NIM, \tautau, \ra, \pb, \ffbar, \MeV, \MW, \bbbar, \PRL, \PL, \etal, \NP, \Zo, \MH, \journalname, \CPC, \rts, \ZfP, \GeV, \ee, \submitted, \citet, \MZ, \W]; 1 missing file[l3_title.sty].
161298 2013-02-26 12:26:33 /0008/hep-ex.0008020 57430000[\preprint, {mcbibliography}, \PW, \Pgt, \MeV, \eg, \PWm, \Paq, \etal, \Pep, \Pe, \Pgm, \PWp, \ifmath, \Pem, \Pq, \journalname, \submitted, \GeV, \ie]; 1 missing file[l3_title.sty].
161299 2013-02-26 12:25:47 /0008/gr-qc.0008030 71130000[\mathbb, \discipline, \resizebox, \includegraphics, \thechapter, \sigpages, \mainbody, \@currentID, \rotatebox, \prepages, \degree, {acknowledgements}]; 1 missing file[thesis91Esub.sty].
161300 2013-02-26 12:25:42 /0008/hep-ex.0008012 030000[\epsfig].
161301 2013-02-26 12:25:37 /0008/hep-ex.0008011 020000[\conference, \collaboration].
161302 2013-02-26 12:25:29 /0008/hep-ex.0008014 030000[\extrasenglish, \dateenglish, \captionsenglish].
161303 2013-02-26 12:25:21 /0008/gr-qc.0008075 2120000[\psfrag, \psfragscanon].
161304 2013-02-26 12:24:50 /0008/hep-ex.0008003 140000[\epsfbox, \epsfxsize].
161305 2013-02-26 12:24:00 /0008/gr-qc.0008033 5530000[{sidewaystable}].
161306 2013-02-26 12:23:52 /0008/gr-qc.0008051 810000[\the@equationgroup@ID].
161307 2013-02-26 12:22:42 /0008/gr-qc.0008050 4890000[{centering}].
161308 2013-02-26 12:22:22 /0008/gr-qc.0008032 2230000[\pssilent, \psfig]; 1 missing file[psfig].
161309 2013-02-26 12:21:55 /0008/cs.0008036 321630000[\citeauthoryear, \enumsentence, \citeNP, \citeANP, \drawline, \chunk, \dottedline, \shortciteN, \eenumsentence, \drawwith, \citeN, {bundle}]; 2 missing files[lingmacros.sty, ecltree.sty].
161310 2013-02-26 12:21:24 /0008/gr-qc.0008031 230000[\pssilent, \psfig]; 1 missing file[psfig].
161311 2013-02-26 12:21:00 /0008/gr-qc.0008035 120000[\iiint, \iint].
161312 2013-02-26 12:18:24 /0008/gr-qc.0008029 120000[\iiint, \iint].
161313 2013-02-26 12:18:20 /0008/gr-qc.0008009 030000[\extrasenglish, \dateenglish, \captionsenglish].
161314 2013-02-26 12:18:09 /0008/gr-qc.0008010 010000[{centering}].
161315 2013-02-26 12:17:20 /0008/cs.0008035 1840000[\citename, \shortcite, \rotate]; 1 missing file[colacl.sty].
161316 2013-02-26 12:16:37 /0008/gr-qc.0008005 140000[\thechapter@ID, \re]; 1 missing file[res.sty].
161317 2013-02-26 12:16:02 /0008/cs.0008029 1640000[\shortcite, \rotate, \And]; 1 missing file[colacl.sty].
161318 2013-02-26 12:15:55 /0008/cs.0008026 040000[\shortcite, \newcite, \And]; 1 missing file[colacl.sty].
161319 2013-02-26 12:15:46 /0008/cs.0008028 1940000[\shortcite, \And, \AND]; 1 missing file[colacl.sty].
161320 2013-02-26 12:15:45 /0008/cs.0008027 860000[\newcite, \shortcite, \egcite, \And, \AND]; 1 missing file[colacl.sty].
161321 2013-02-26 12:15:33 /0008/cs.0008032 1020000[\epsfile]; 1 missing file[sigir98.cls].
161322 2013-02-26 12:15:27 /0008/cs.0008030 230000[\affil, \kw]; 1 missing file[coin.sty].
161323 2013-02-26 12:15:25 /0008/cs.0008031 340000[\citename]; 1 missing file[colacl.sty].
161324 2013-02-26 12:15:13 /0008/cs.0008033 3170000[{exe}, \Tree, \ex, \@lowpenalty, \@highpenalty, \@medpenalty, \a, \gll, \singlegloss, \trans, {xlist}, \faketreewidth]; 2 missing files[qtree.sty, gb4e.sty].
161325 2013-02-26 12:15:09 /0008/cs.0008034 670000[\citename, \newcite, \AND]; 1 missing file[acl2000.sty].
161326 2013-02-26 12:15:06 /0008/cs.0008015 0200000[{examples}, \textipa, \citename, \shortcite, \sout, \normalem]; 3 missing files[myexamples.sty, tipa.sty, colacl.sty].
161327 2013-02-26 12:15:01 /0008/cs.0008014 080000[\citename, \shortcite, \newcite, \Tree, \qtreecenterfalse, \faketreewidth]; 2 missing files[qtree.sty, colacl.sty].
161328 2013-02-26 12:14:49 /0008/cs.0008017 640000[\newcite, \shortcite, \drawline]; 1 missing file[colacl.sty].
161329 2013-02-26 12:14:49 /0008/cs.0008020 3420000[\newcite]; 1 missing file[colacl.sty].
161330 2013-02-26 12:14:42 /0008/cs.0008022 1020000[\shortcite]; 1 missing file[colacl.sty].
161331 2013-02-26 12:14:36 /0008/cs.0008011 1250000[\texture, \shade, \ellipse, \blacken, \path].
161332 2013-02-26 12:14:35 /0008/cs.0008021 0110000[\if@minipage, \@setminipage, \shortcite, \@makecaption, \@parboxrestore]; 1 missing file[colacl.sty].
161333 2013-02-26 12:14:29 /0008/cs.0008024 370000[\citename, {parsetree}]; 2 missing files[parsetree.sty, colacl.sty].
161334 2013-02-26 12:14:28 /0008/cs.0008003 520000[\citename]; 1 missing file[colacl.sty].
161335 2013-02-26 12:14:25 /0008/cs.0008023 2520000[\osort, \fval, \sqz, \avmhskip, \feat, \avmsortfont, {examples}, {bundle}, \avmvskip, \avmspan, \sort, \srt, {avm}, \avmvalfont, \chunk, Align, \avmfont, \<, \And, \avmoptions, \avmbox]; 4 missing files[ecltree.sty, examples.sty, avm.sty, colacl.sty].
161336 2013-02-26 12:14:13 /0008/cs.0008005 030000[\citename, \newcite]; 1 missing file[colacl.sty].
161337 2013-02-26 12:14:10 /0008/cs.0008004 030000[\citename, \newcite]; 1 missing file[colacl.sty].
161338 2013-02-26 12:14:02 /0008/cs.0008006 370000[\Then, \If, \drawline, \dashline]; 1 missing file[program.sty].
161339 2013-02-26 12:13:59 /0008/cs.0008010 0220000[\+, \Dujmovic, \Comment, \conv, \Universitat, \Z, \psfrag, \Sacristan, \etal, \abs, \Erdos, \ceil, \set, \mathsc, \Cortes, \Grunbaum, \cramped, \ie, \Belen, {proof}, {algo}, \floor].
161340 2013-02-26 12:13:41 /0008/cs.0008007 270000[\citeauthoryear, \surname, \email, \shortcite, \institute, {opening}, {article}].
161341 2013-02-26 12:13:33 /0008/cs.0008002 16110000[{algorithm}, \ForEach, \While, \Out, \For, \Begin, \In, \Return, \SetVline].
161342 2013-02-26 12:13:19 /0008/cs.0008012 130000[\citename, \shortcite]; 1 missing file[colacl.sty].
161343 2013-02-26 12:13:16 /0008/cs.0008013 070000[\textlengthmark, \textbaru, \textipa, \textcommatailz, \textschwa]; 2 missing files[ml2k.sty, tipa.sty].
161344 2013-02-26 12:12:54 /0008/cond-mat.0008469 1620000[\psfig]; 1 missing file[psfig].
161345 2013-02-26 12:12:17 /0008/cond-mat.0008455 810000[\citen].
161346 2013-02-26 12:12:02 /0008/cond-mat.0008454 820000[\citen].
161347 2013-02-26 12:11:52 /0008/cond-mat.0008460 3410000[\a].
161348 2013-02-26 12:11:25 /0008/cond-mat.0008459 510000[\a].
161349 2013-02-26 12:11:16 /0008/cond-mat.0008443 110000[\psfrag].
161350 2013-02-26 12:10:34 /0008/cond-mat.0008439 10700000[\psfig]; 1 missing file[psfig].
161351 2013-02-26 12:09:15 /0008/cond-mat.0008430 610000[\citationstyle].
161352 2013-02-26 12:08:35 /0008/cond-mat.0008416 530000[\CITE].
161353 2013-02-26 12:08:23 /0008/cond-mat.0008412 4310000[\rotate].
161354 2013-02-26 12:07:42 /0008/cond-mat.0008403 3020000[\psfrag].
161355 2013-02-26 12:05:47 /0008/cond-mat.0008397 7450000[\epsfbox, \epsfxsize, \epsfysize]; 2 missing files[subeqna.sty, jpsjbs.sty].
161356 2013-02-26 12:05:44 /0008/cond-mat.0008392 150000[\euro, \pacs, \institute, \Date].
161357 2013-02-26 12:05:36 /0008/cond-mat.0008393 2230000[\postscriptbox, \epsfile]; 1 missing file[epsbox.sty].
161358 2013-02-26 12:04:24 /0008/cond-mat.0008400 430000[\@affiliation].
161359 2013-02-26 12:01:44 /0008/cond-mat.0008374 7710000[\footrulewidth].
161360 2013-02-26 11:59:43 /0008/cond-mat.0008363 540000[\epsfbox, \epsfxsize].
161361 2013-02-26 11:59:15 /0008/cond-mat.0008367 2130000[\footrulewidth].
161362 2013-02-26 11:58:07 /0008/cond-mat.0008349 110000[\footrulewidth].
161363 2013-02-26 11:57:20 /0008/cond-mat.0008354 850000[\epsfbox, \citet, \epsfxsize]; 2 missing files[subeqna.sty, jpsjbs.sty].
161364 2013-02-26 11:57:12 /0008/cond-mat.0008356 720000[\psfig]; 1 missing file[psfig].
161365 2013-02-26 11:56:51 /0008/cond-mat.0008357 020000[{singlespace}, \setstretch].
161366 2013-02-26 11:56:40 /0008/cond-mat.0008337 240000[\@affiliation, \onefigure].
161367 2013-02-26 11:56:39 /0008/cond-mat.0008327 28460000[Align, {comment}, {subeqnarray}].
161368 2013-02-26 11:56:23 /0008/cond-mat.0008341 3500000[\rotate].
161369 2013-02-26 11:55:59 /0008/cond-mat.0008345 310000[\footrulewidth].
161370 2013-02-26 11:55:39 /0008/cond-mat.0008328 960000[\epsfbox, \mib, \epsfysize, \epsfxsize]; 2 missing files[subeqna.sty, jpsjbs.sty].
161371 2013-02-26 11:54:58 /0008/cond-mat.0008331 350000[\epsfbox, \epsfysize, \epsfxsize]; 2 missing files[subeqna.sty, jpsjbs.sty].
161372 2013-02-26 11:53:56 /0008/cond-mat.0008318 030000[\address, \runninghead]; 1 missing file[jltp.sty].
161373 2013-02-26 11:53:46 /0008/cond-mat.0008319 130000[\address, \runninghead]; 1 missing file[jltp.sty].
161374 2013-02-26 11:52:29 /0008/cond-mat.0008307 130000[\epsfile]; 2 missing files[subeqna.sty, jpsjbs.sty].
161375 2013-02-26 11:52:21 /0008/cond-mat.0008306 2840000[\TCItag, \dsum, \dfrac, \tag].
161376 2013-02-26 11:51:56 /0008/cond-mat.0008314 1410000[\rotate].
161377 2013-02-26 11:51:06 /0008/cond-mat.0008312 340000[\epsfbox, \institute, {opening}, \epsfxsize].
161378 2013-02-26 11:50:57 /0008/cond-mat.0008292 1180000[\euro, \pacs, \rec, \institute, \Date].
161379 2013-02-26 11:48:33 /0008/cond-mat.0008276 0100000[\twofigures, \rec, \@affiliation, \upd, \etal].
161380 2013-02-26 11:47:57 /0008/cond-mat.0008268 020000[\psbox]; 1 missing file[epsbox.sty].
161381 2013-02-26 11:47:40 /0008/cond-mat.0008246 5820000[\drawline, \dashline].
161382 2013-02-26 11:47:40 /0008/cond-mat.0008257 1010000[\rotcaption].
161383 2013-02-26 11:46:44 /0008/cond-mat.0008240 010000[\geometry].
161384 2013-02-26 11:45:55 /0008/cond-mat.0008235 320000[\psfig]; 1 missing file[psfig].
161385 2013-02-26 11:45:13 /0008/cond-mat.0008184 5110000[\psfrag].
161386 2013-02-26 11:44:54 /0008/cond-mat.0008215 3210000[\psfrag].
161387 2013-02-26 11:44:23 /0008/cond-mat.0008203 010000[\footrulewidth].
161388 2013-02-26 11:44:12 /0008/cond-mat.0008168 1710000[\theappendix].
161389 2013-02-26 11:43:23 /0008/cond-mat.0008196 380000[{keywords}, \runningtitle, \email, \runningauthor, {frontmatter}, \acknowledgements, \received, \classification].
161390 2013-02-26 11:42:15 /0008/cond-mat.0008171 910000[\footrulewidth].
161391 2013-02-26 11:42:00 /0008/cond-mat.0008158 830000[\ftnote, \epsffile, \epsfysize].
161392 2013-02-26 11:41:53 /0008/cond-mat.0008165 1910000[{mathletters}].
161393 2013-02-26 11:41:43 /0008/cond-mat.0008162 110000[\epsfig].
161394 2013-02-26 11:41:30 /0008/cond-mat.0008147 0110000[\psfrag].
161395 2013-02-26 11:41:13 /0008/cond-mat.0008151 150000[\BoxedEPSF, \ForceWidth, \SetOzTeXEPSFSpecial, \HideDisplacementBoxes]; 1 missing file[BoxedEPS.tex].
161396 2013-02-26 11:41:01 /0008/cond-mat.0008153 010000[\epsfig].
161397 2013-02-26 11:40:36 /0008/cond-mat.0008139 240000[\epsfig].
161398 2013-02-26 11:40:33 /0008/cond-mat.0008143 010000[\bezier].
161399 2013-02-26 11:39:51 /0008/cond-mat.0008116 630000[\institute, \runningtitle, {opening}].
161400 2013-02-26 11:39:30 /0008/cond-mat.0008106 1620000[\runningauthor, \keywords].
<<< >>>

[0] [200] [400] [600] [800] [1000] [1200] [1400] [1600] [1800] [2000] [2200] [2400] [2600] [2800] [3000] [3200] [3400] [3600] [3800] [4000] [4200] [4400] [4600] [4800] [5000] [5200] [5400] [5600] [5800] [6000] [6200] [6400] [6600] [6800] [7000] [7200] [7400] [7600] [7800] [8000] [8200] [8400] [8600] [8800] [9000] [9200] [9400] [9600] [9800] [10000] [10200] [10400] [10600] [10800] [11000] [11200] [11400] [11600] [11800] [12000] [12200] [12400] [12600] [12800] [13000] [13200] [13400] [13600] [13800] [14000] [14200] [14400] [14600] [14800] [15000] [15200] [15400] [15600] [15800] [16000] [16200] [16400] [16600] [16800] [17000] [17200] [17400] [17600] [17800] [18000] [18200] [18400] [18600] [18800] [19000] [19200] [19400] [19600] [19800] [20000] [20200] [20400] [20600] [20800] [21000] [21200] [21400] [21600] [21800] [22000] [22200] [22400] [22600] [22800] [23000] [23200] [23400] [23600] [23800] [24000] [24200] [24400] [24600] [24800] [25000] [25200] [25400] [25600] [25800] [26000] [26200] [26400] [26600] [26800] [27000] [27200] [27400] [27600] [27800] [28000] [28200] [28400] [28600] [28800] [29000] [29200] [29400] [29600] [29800] [30000] [30200] [30400] [30600] [30800] [31000] [31200] [31400] [31600] [31800] [32000] [32200] [32400] [32600] [32800] [33000] [33200] [33400] [33600] [33800] [34000] [34200] [34400] [34600] [34800] [35000] [35200] [35400] [35600] [35800] [36000] [36200] [36400] [36600] [36800] [37000] [37200] [37400] [37600] [37800] [38000] [38200] [38400] [38600] [38800] [39000] [39200] [39400] [39600] [39800] [40000] [40200] [40400] [40600] [40800] [41000] [41200] [41400] [41600] [41800] [42000] [42200] [42400] [42600] [42800] [43000] [43200] [43400] [43600] [43800] [44000] [44200] [44400] [44600] [44800] [45000] [45200] [45400] [45600] [45800] [46000] [46200] [46400] [46600] [46800] [47000] [47200] [47400] [47600] [47800] [48000] [48200] [48400] [48600] [48800] [49000] [49200] [49400] [49600] [49800] [50000] [50200] [50400] [50600] [50800] [51000] [51200] [51400] [51600] [51800] [52000] [52200] [52400] [52600] [52800] [53000] [53200] [53400] [53600] [53800] [54000] [54200] [54400] [54600] [54800] [55000] [55200] [55400] [55600] [55800] [56000] [56200] [56400] [56600] [56800] [57000] [57200] [57400] [57600] [57800] [58000] [58200] [58400] [58600] [58800] [59000] [59200] [59400] [59600] [59800] [60000] [60200] [60400] [60600] [60800] [61000] [61200] [61400] [61600] [61800] [62000] [62200] [62400] [62600] [62800] [63000] [63200] [63400] [63600] [63800] [64000] [64200] [64400] [64600] [64800] [65000] [65200] [65400] [65600] [65800] [66000] [66200] [66400] [66600] [66800] [67000] [67200] [67400] [67600] [67800] [68000] [68200] [68400] [68600] [68800] [69000] [69200] [69400] [69600] [69800] [70000] [70200] [70400] [70600] [70800] [71000] [71200] [71400] [71600] [71800] [72000] [72200] [72400] [72600] [72800] [73000] [73200] [73400] [73600] [73800] [74000] [74200] [74400] [74600] [74800] [75000] [75200] [75400] [75600] [75800] [76000] [76200] [76400] [76600] [76800] [77000] [77200] [77400] [77600] [77800] [78000] [78200] [78400] [78600] [78800] [79000] [79200] [79400] [79600] [79800] [80000] [80200] [80400] [80600] [80800] [81000] [81200] [81400] [81600] [81800] [82000] [82200] [82400] [82600] [82800] [83000] [83200] [83400] [83600] [83800] [84000] [84200] [84400] [84600] [84800] [85000] [85200] [85400] [85600] [85800] [86000] [86200] [86400] [86600] [86800] [87000] [87200] [87400] [87600] [87800] [88000] [88200] [88400] [88600] [88800] [89000] [89200] [89400] [89600] [89800] [90000] [90200] [90400] [90600] [90800] [91000] [91200] [91400] [91600] [91800] [92000] [92200] [92400] [92600] [92800] [93000] [93200] [93400] [93600] [93800] [94000] [94200] [94400] [94600] [94800] [95000] [95200] [95400] [95600] [95800] [96000] [96200] [96400] [96600] [96800] [97000] [97200] [97400] [97600] [97800] [98000] [98200] [98400] [98600] [98800] [99000] [99200] [99400] [99600] [99800] [100000] [100200] [100400] [100600] [100800] [101000] [101200] [101400] [101600] [101800] [102000] [102200] [102400] [102600] [102800] [103000] [103200] [103400] [103600] [103800] [104000] [104200] [104400] [104600] [104800] [105000] [105200] [105400] [105600] [105800] [106000] [106200] [106400] [106600] [106800] [107000] [107200] [107400] [107600] [107800] [108000] [108200] [108400] [108600] [108800] [109000] [109200] [109400] [109600] [109800] [110000] [110200] [110400] [110600] [110800] [111000] [111200] [111400] [111600] [111800] [112000] [112200] [112400] [112600] [112800] [113000] [113200] [113400] [113600] [113800] [114000] [114200] [114400] [114600] [114800] [115000] [115200] [115400] [115600] [115800] [116000] [116200] [116400] [116600] [116800] [117000] [117200] [117400] [117600] [117800] [118000] [118200] [118400] [118600] [118800] [119000] [119200] [119400] [119600] [119800] [120000] [120200] [120400] [120600] [120800] [121000] [121200] [121400] [121600] [121800] [122000] [122200] [122400] [122600] [122800] [123000] [123200] [123400] [123600] [123800] [124000] [124200] [124400] [124600] [124800] [125000] [125200] [125400] [125600] [125800] [126000] [126200] [126400] [126600] [126800] [127000] [127200] [127400] [127600] [127800] [128000] [128200] [128400] [128600] [128800] [129000] [129200] [129400] [129600] [129800] [130000] [130200] [130400] [130600] [130800] [131000] [131200] [131400] [131600] [131800] [132000] [132200] [132400] [132600] [132800] [133000] [133200] [133400] [133600] [133800] [134000] [134200] [134400] [134600] [134800] [135000] [135200] [135400] [135600] [135800] [136000] [136200] [136400] [136600] [136800] [137000] [137200] [137400] [137600] [137800] [138000] [138200] [138400] [138600] [138800] [139000] [139200] [139400] [139600] [139800] [140000] [140200] [140400] [140600] [140800] [141000] [141200] [141400] [141600] [141800] [142000] [142200] [142400] [142600] [142800] [143000] [143200] [143400] [143600] [143800] [144000] [144200] [144400] [144600] [144800] [145000] [145200] [145400] [145600] [145800] [146000] [146200] [146400] [146600] [146800] [147000] [147200] [147400] [147600] [147800] [148000] [148200] [148400] [148600] [148800] [149000] [149200] [149400] [149600] [149800] [150000] [150200] [150400] [150600] [150800] [151000] [151200] [151400] [151600] [151800] [152000] [152200] [152400] [152600] [152800] [153000] [153200] [153400] [153600] [153800] [154000] [154200] [154400] [154600] [154800] [155000] [155200] [155400] [155600] [155800] [156000] [156200] [156400] [156600] [156800] [157000] [157200] [157400] [157600] [157800] [158000] [158200] [158400] [158600] [158800] [159000] [159200] [159400] [159600] [159800] [160000] [160200] [160400] [160600] [160800] [161000] [161200] [161400] [161600] [161800] [162000] [162200] [162400] [162600] [162800] [163000] [163200] [163400] [163600] [163800] [164000] [164200] [164400] [164600]
 
  The service has been written by
Heinrich Stamerjohanns